Time;durP1;ratioP1;P1;durP2;ratioP2;P2;SDS_P1;SDS_P2;PMS_P1;PMS_P2;Temp;Humidity;BMP_temperature;BMP_pressure;BME280_temperature;BME280_humidity;BME280_pressure;Samples;Min_cycle;Max_cycle;Signal;HPM_P1;HPM_P2
2024/01/07 00:00:36;;;;;;;20.85;9.48;;;;;;;;;;5139286;27;20078;-75
2024/01/07 00:03:02;;;;;;;19.33;8.13;;;;;;;;;;5157843;27;20042;-75
2024/01/07 00:05:29;;;;;;;20.10;7.88;;;;;;;;;;5140022;27;20455;-74
2024/01/07 00:07:55;;;;;;;16.13;6.85;;;;;;;;;;5138672;27;20049;-75
2024/01/07 00:10:21;;;;;;;20.70;8.65;;;;;;;;;;5138908;27;20073;-74
2024/01/07 00:12:48;;;;;;;23.73;13.90;;;;;;;;;;5122146;27;20105;-74
2024/01/07 00:15:14;;;;;;;18.48;8.77;;;;;;;;;;5158090;27;20053;-75
2024/01/07 00:17:40;;;;;;;24.23;9.88;;;;;;;;;;5157375;27;20398;-75
2024/01/07 00:20:06;;;;;;;24.05;9.43;;;;;;;;;;5157936;27;20122;-79
2024/01/07 00:22:33;;;;;;;24.52;10.25;;;;;;;;;;5157434;27;20398;-75
2024/01/07 00:24:59;;;;;;;24.50;9.55;;;;;;;;;;5157277;27;20084;-75
2024/01/07 00:27:25;;;;;;;21.25;10.23;;;;;;;;;;5122042;27;20050;-74
2024/01/07 00:29:51;;;;;;;21.77;7.50;;;;;;;;;;5122072;27;20047;-76
2024/01/07 00:32:17;;;;;;;23.08;11.25;;;;;;;;;;5157372;27;20074;-75
2024/01/07 00:34:43;;;;;;;21.60;9.95;;;;;;;;;;5140223;27;20034;-75
2024/01/07 00:37:09;;;;;;;23.95;10.05;;;;;;;;;;5157758;27;20055;-74
2024/01/07 00:39:35;;;;;;;22.20;9.48;;;;;;;;;;5138304;27;20050;-74
2024/01/07 00:42:01;;;;;;;24.83;9.35;;;;;;;;;;5156501;27;20555;-74
2024/01/07 00:44:27;;;;;;;26.40;9.88;;;;;;;;;;5121455;27;20042;-74
2024/01/07 00:46:53;;;;;;;24.52;9.30;;;;;;;;;;5156960;27;20047;-76
2024/01/07 00:49:19;;;;;;;21.33;8.50;;;;;;;;;;5121567;27;20046;-74
2024/01/07 00:51:46;;;;;;;23.42;11.13;;;;;;;;;;5138422;27;20061;-73
2024/01/07 00:54:12;;;;;;;24.83;14.68;;;;;;;;;;5138477;27;20038;-75
2024/01/07 00:56:38;;;;;;;24.05;12.43;;;;;;;;;;5138577;27;20123;-75
2024/01/07 00:59:04;;;;;;;22.30;9.75;;;;;;;;;;5138473;27;20039;-75
2024/01/07 01:01:30;;;;;;;20.50;8.80;;;;;;;;;;5139259;27;20578;-73
2024/01/07 01:03:57;;;;;;;15.82;6.68;;;;;;;;;;5122726;27;20095;-73
2024/01/07 01:06:23;;;;;;;;;;;;;;;;;;5158118;27;20087;-74
2024/01/07 01:08:50;;;;;;;22.42;8.82;;;;;;;;;;5156589;27;20354;-77
2024/01/07 01:11:16;;;;;;;14.25;5.95;;;;;;;;;;5157627;27;20104;-77
2024/01/07 01:13:42;;;;;;;18.13;7.95;;;;;;;;;;5139214;27;20054;-74
2024/01/07 01:16:08;;;;;;;21.80;8.30;;;;;;;;;;5156510;27;20046;-75
2024/01/07 01:18:34;;;;;;;17.42;7.55;;;;;;;;;;5137189;27;20154;-72
2024/01/07 01:21:00;;;;;;;19.33;8.40;;;;;;;;;;5156215;27;20043;-74
2024/01/07 01:23:26;;;;;;;20.25;8.30;;;;;;;;;;5157169;27;20102;-73
2024/01/07 01:25:52;;;;;;;20.98;10.70;;;;;;;;;;5156113;27;20057;-72
2024/01/07 01:28:18;;;;;;;18.88;7.82;;;;;;;;;;5156093;27;20050;-74
2024/01/07 01:30:44;;;;;;;18.85;7.85;;;;;;;;;;5121307;27;20375;-74
2024/01/07 01:33:10;;;;;;;20.20;7.78;;;;;;;;;;5155994;27;20387;-74
2024/01/07 01:35:37;;;;;;;18.75;7.85;;;;;;;;;;5156235;27;20099;-73
2024/01/07 01:38:03;;;;;;;18.58;7.68;;;;;;;;;;5155912;27;20125;-74
2024/01/07 01:40:29;;;;;;;15.10;6.70;;;;;;;;;;5137599;27;20041;-73
2024/01/07 01:42:55;;;;;;;19.58;8.30;;;;;;;;;;5120403;27;20402;-73
2024/01/07 01:45:21;;;;;;;22.00;9.63;;;;;;;;;;5120669;27;20091;-76
2024/01/07 01:47:48;;;;;;;16.45;7.00;;;;;;;;;;5120287;27;20050;-75
2024/01/07 01:50:14;;;;;;;15.38;5.38;;;;;;;;;;5155874;27;20110;-74
2024/01/07 01:52:42;;;;;;;18.75;6.90;;;;;;;;;;5120356;27;20056;-74
2024/01/07 01:55:08;;;;;;;;;;;;;;;;;;5137504;27;20046;-74
2024/01/07 01:57:35;;;;;;;20.13;8.00;;;;;;;;;;5155770;27;20293;-74
2024/01/07 02:00:04;;;;;;;18.70;7.90;;;;;;;;;;5137652;27;20281;-74
2024/01/07 02:02:36;;;;;;;15.38;5.93;;;;;;;;;;5155551;27;20087;-76
2024/01/07 02:05:03;;;;;;;21.73;8.57;;;;;;;;;;5155436;27;20129;-76
2024/01/07 02:07:29;;;;;;;17.73;8.07;;;;;;;;;;5155192;27;20098;-74
2024/01/07 02:09:55;;;;;;;17.67;7.18;;;;;;;;;;5136628;27;20110;-73
2024/01/07 02:12:22;;;;;;;20.35;10.10;;;;;;;;;;5155983;27;20053;-74
2024/01/07 02:14:48;;;;;;;18.23;7.40;;;;;;;;;;5155935;27;20050;-74
2024/01/07 02:17:14;;;;;;;17.77;8.40;;;;;;;;;;5155098;27;20049;-74
2024/01/07 02:19:41;;;;;;;26.08;11.88;;;;;;;;;;5120097;27;20047;-73
2024/01/07 02:22:07;;;;;;;19.33;8.13;;;;;;;;;;5155158;27;20046;-74
2024/01/07 02:24:33;;;;;;;18.17;6.72;;;;;;;;;;5137070;27;20039;-72
2024/01/07 02:27:02;;;;;;;19.67;8.80;;;;;;;;;;5136897;27;20042;-75
2024/01/07 02:29:29;;;;;;;18.83;8.80;;;;;;;;;;5136839;27;20374;-75
2024/01/07 02:31:55;;;;;;;24.33;10.60;;;;;;;;;;5158704;27;20035;-74
2024/01/07 02:34:21;;;;;;;20.63;8.05;;;;;;;;;;5159558;27;20284;-75
2024/01/07 02:36:47;;;;;;;21.48;10.38;;;;;;;;;;5160452;27;20129;-74
2024/01/07 02:39:13;;;;;;;14.13;6.15;;;;;;;;;;5159399;27;20047;-74
2024/01/07 02:41:39;;;;;;;20.33;8.55;;;;;;;;;;5124825;27;20085;-74
2024/01/07 02:44:05;;;;;;;16.90;7.15;;;;;;;;;;5140779;27;20046;-74
2024/01/07 02:46:32;;;;;;;20.80;8.25;;;;;;;;;;5159525;27;20172;-74
2024/01/07 02:48:58;;;;;;;21.67;9.88;;;;;;;;;;5141004;27;20133;-74
2024/01/07 02:51:24;;;;;;;18.10;8.02;;;;;;;;;;5158768;27;20039;-74
2024/01/07 02:53:50;;;;;;;19.10;8.30;;;;;;;;;;5158903;27;20543;-74
2024/01/07 02:56:16;;;;;;;20.70;8.57;;;;;;;;;;5123366;27;20520;-74
2024/01/07 02:58:42;;;;;;;15.65;6.80;;;;;;;;;;5123825;27;20187;-75
2024/01/07 03:01:11;;;;;;;19.17;7.78;;;;;;;;;;5140893;27;20054;-74
2024/01/07 03:03:38;;;;;;;18.30;7.68;;;;;;;;;;5123800;27;20038;-77
2024/01/07 03:06:04;;;;;;;18.35;7.50;;;;;;;;;;5141288;27;20183;-73
2024/01/07 03:08:30;;;;;;;17.50;7.53;;;;;;;;;;5158989;27;20074;-76
2024/01/07 03:10:56;;;;;;;18.33;7.60;;;;;;;;;;5123287;27;20064;-74
2024/01/07 03:13:22;;;;;;;17.65;6.53;;;;;;;;;;5159306;27;20126;-77
2024/01/07 03:15:48;;;;;;;18.17;8.13;;;;;;;;;;5158482;27;20050;-76
2024/01/07 03:18:14;;;;;;;16.15;7.20;;;;;;;;;;5159151;27;20047;-74
2024/01/07 03:20:40;;;;;;;15.45;6.20;;;;;;;;;;5141105;27;20042;-79
2024/01/07 03:23:06;;;;;;;16.65;7.18;;;;;;;;;;5158620;27;20089;-75
2024/01/07 03:25:33;;;;;;;16.65;7.20;;;;;;;;;;5139965;27;20403;-73
2024/01/07 03:27:59;;;;;;;14.68;6.03;;;;;;;;;;5158219;27;20504;-75
2024/01/07 03:30:25;;;;;;;16.58;6.57;;;;;;;;;;5139958;27;20042;-76
2024/01/07 03:32:51;;;;;;;19.05;9.00;;;;;;;;;;5158123;27;20043;-75
2024/01/07 03:35:17;;;;;;;15.95;6.70;;;;;;;;;;5123332;27;20179;-75
2024/01/07 03:37:43;;;;;;;19.50;7.65;;;;;;;;;;5139884;27;20175;-75
2024/01/07 03:40:11;;;;;;;17.05;6.57;;;;;;;;;;5139719;27;20050;-74
2024/01/07 03:42:37;;;;;;;16.98;7.68;;;;;;;;;;5138532;27;20043;-73
2024/01/07 03:45:04;;;;;;;19.33;8.07;;;;;;;;;;5157906;27;20133;-72
2024/01/07 03:47:31;;;;;;;17.37;7.27;;;;;;;;;;5158759;27;20137;-75
2024/01/07 03:49:57;;;;;;;16.73;6.80;;;;;;;;;;5139880;27;20053;-74
2024/01/07 03:52:23;;;;;;;20.52;7.80;;;;;;;;;;5140072;27;20047;-74
2024/01/07 03:54:49;;;;;;;18.60;8.20;;;;;;;;;;5139452;27;20454;-75
2024/01/07 03:57:15;;;;;;;21.65;8.48;;;;;;;;;;5157893;27;20043;-74
2024/01/07 03:59:41;;;;;;;16.50;7.75;;;;;;;;;;5139379;27;20049;-75
2024/01/07 04:02:07;;;;;;;20.85;8.50;;;;;;;;;;5157529;27;20106;-74
2024/01/07 04:04:33;;;;;;;17.25;7.13;;;;;;;;;;5139474;27;20062;-72
2024/01/07 04:06:59;;;;;;;18.08;7.82;;;;;;;;;;5157508;27;20046;-74
2024/01/07 04:09:25;;;;;;;16.92;6.60;;;;;;;;;;5157600;27;20462;-76
2024/01/07 04:11:52;;;;;;;15.88;7.90;;;;;;;;;;5157890;27;20058;-74
2024/01/07 04:14:18;;;;;;;17.33;7.38;;;;;;;;;;5157646;27;20088;-73
2024/01/07 04:16:44;;;;;;;11.63;4.93;;;;;;;;;;5139184;27;20043;-76
2024/01/07 04:19:10;;;;;;;16.13;6.55;;;;;;;;;;5139562;27;20057;-76
2024/01/07 04:21:36;;;;;;;11.95;5.32;;;;;;;;;;5139074;27;20087;-76
2024/01/07 04:24:02;;;;;;;12.93;6.00;;;;;;;;;;5139186;27;20034;-76
2024/01/07 04:26:28;;;;;;;12.43;5.82;;;;;;;;;;5139046;27;20122;-74
2024/01/07 04:28:54;;;;;;;15.18;6.85;;;;;;;;;;5139755;27;20039;-73
2024/01/07 04:31:20;;;;;;;14.80;5.97;;;;;;;;;;5157572;27;20107;-74
2024/01/07 04:33:47;;;;;;;16.77;7.38;;;;;;;;;;5157115;27;20046;-73
2024/01/07 04:36:13;;;;;;;12.68;4.40;;;;;;;;;;5139954;27;20462;-76
2024/01/07 04:38:39;;;;;;;10.95;4.22;;;;;;;;;;5157581;27;20054;-74
2024/01/07 04:41:07;;;;;;;17.63;6.28;;;;;;;;;;5139360;27;20431;-74
2024/01/07 04:43:33;;;;;;;14.15;6.32;;;;;;;;;;5138884;27;20157;-74
2024/01/07 04:45:59;;;;;;;14.63;6.35;;;;;;;;;;5158135;27;20490;-74
2024/01/07 04:48:25;;;;;;;10.32;3.97;;;;;;;;;;5157813;27;20050;-76
2024/01/07 04:50:51;;;;;;;15.45;7.47;;;;;;;;;;5138857;27;20127;-76
2024/01/07 04:53:17;;;;;;;12.48;4.88;;;;;;;;;;5157154;27;20051;-75
2024/01/07 04:55:43;;;;;;;14.13;6.20;;;;;;;;;;5121298;27;20047;-73
2024/01/07 04:58:09;;;;;;;15.00;6.18;;;;;;;;;;5139354;27;20042;-75
2024/01/07 05:00:35;;;;;;;15.68;6.93;;;;;;;;;;5157348;27;20042;-75
2024/01/07 05:03:01;;;;;;;19.13;9.88;;;;;;;;;;5138115;27;20486;-73
2024/01/07 05:05:27;;;;;;;11.50;5.05;;;;;;;;;;5122083;27;20095;-76
2024/01/07 05:07:53;;;;;;;16.48;7.15;;;;;;;;;;5138844;27;20386;-74
2024/01/07 05:10:20;;;;;;;9.98;3.83;;;;;;;;;;5138381;27;20054;-74
2024/01/07 05:12:46;;;;;;;15.50;6.15;;;;;;;;;;5121476;27;20047;-75
2024/01/07 05:15:12;;;;;;;12.95;5.05;;;;;;;;;;5158275;27;20049;-74
2024/01/07 05:17:38;;;;;;;14.77;6.68;;;;;;;;;;5157712;27;20452;-73
2024/01/07 05:20:06;;;;;;;16.20;6.50;;;;;;;;;;5156226;27;20035;-75
2024/01/07 05:22:32;;;;;;;10.32;3.83;;;;;;;;;;5138406;27;20051;-76
2024/01/07 05:24:58;;;;;;;15.35;8.43;;;;;;;;;;5157198;27;20145;-75
2024/01/07 05:27:24;;;;;;;14.23;6.07;;;;;;;;;;5156125;27;20046;-73
2024/01/07 05:29:50;;;;;;;14.98;5.20;;;;;;;;;;5156455;27;20046;-74
2024/01/07 05:32:16;;;;;;;14.18;5.95;;;;;;;;;;5120436;27;20051;-75
2024/01/07 05:34:42;;;;;;;11.95;5.47;;;;;;;;;;5156317;27;20126;-75
2024/01/07 05:37:08;;;;;;;13.77;4.75;;;;;;;;;;5137527;27;20046;-74
2024/01/07 05:39:34;;;;;;;13.40;4.82;;;;;;;;;;5137532;27;20047;-74
2024/01/07 05:42:01;;;;;;;11.13;4.65;;;;;;;;;;5120497;27;20066;-77
2024/01/07 05:44:27;;;;;;;13.40;5.65;;;;;;;;;;5137922;27;20073;-75
2024/01/07 05:46:53;;;;;;;12.80;5.82;;;;;;;;;;5155634;27;20050;-75
2024/01/07 05:49:19;;;;;;;11.98;3.80;;;;;;;;;;5156129;27;20038;-74
2024/01/07 05:51:45;;;;;;;10.20;5.53;;;;;;;;;;5137507;27;20478;-74
2024/01/07 05:54:11;;;;;;;13.88;4.95;;;;;;;;;;5155874;27;20079;-74
2024/01/07 05:56:40;;;;;;;11.88;2.85;;;;;;;;;;5155970;27;20126;-73
2024/01/07 05:59:07;;;;;;;8.52;3.60;;;;;;;;;;5137427;27;20046;-74
2024/01/07 06:01:33;;;;;;;14.98;5.93;;;;;;;;;;5156261;27;20039;-73
2024/01/07 06:03:59;;;;;;;12.30;3.92;;;;;;;;;;5155706;27;20054;-73
2024/01/07 06:06:25;;;;;;;10.00;3.80;;;;;;;;;;5136936;27;20046;-76
2024/01/07 06:08:51;;;;;;;11.70;3.85;;;;;;;;;;5138294;27;20351;-75
2024/01/07 06:11:20;;;;;;;10.00;3.08;;;;;;;;;;5155936;27;20054;-75
2024/01/07 06:13:46;;;;;;;6.85;2.95;;;;;;;;;;5121331;27;20050;-77
2024/01/07 06:16:12;;;;;;;13.77;5.05;;;;;;;;;;5137004;27;20051;-75
2024/01/07 06:18:39;;;;;;;6.22;2.55;;;;;;;;;;5156541;27;20065;-75
2024/01/07 06:21:05;;;;;;;9.70;4.03;;;;;;;;;;5155573;27;20087;-74
2024/01/07 06:23:33;;;;;;;9.85;2.17;;;;;;;;;;5138348;27;20054;-75
2024/01/07 06:25:59;;;;;;;7.82;2.60;;;;;;;;;;5138536;27;20043;-75
2024/01/07 06:28:25;;;;;;;10.35;2.75;;;;;;;;;;5156638;27;20074;-74
2024/01/07 06:30:51;;;;;;;7.80;2.13;;;;;;;;;;5137892;27;20039;-77
2024/01/07 06:33:18;;;;;;;6.68;2.63;;;;;;;;;;5121593;27;20054;-73
2024/01/07 06:35:45;;;;;;;6.90;1.98;;;;;;;;;;5137823;27;20042;-77
2024/01/07 06:38:11;;;;;;;14.25;3.33;;;;;;;;;;5138556;27;20135;-77
2024/01/07 06:40:37;;;;;;;7.10;2.28;;;;;;;;;;5120438;27;20054;-75
2024/01/07 06:43:03;;;;;;;5.72;1.65;;;;;;;;;;5121854;27;20034;-74
2024/01/07 06:45:29;;;;;;;5.20;1.85;;;;;;;;;;5143370;27;20054;-77
2024/01/07 06:47:55;;;;;;;5.07;1.42;;;;;;;;;;5145706;27;20043;-77
2024/01/07 06:50:21;;;;;;;6.93;2.38;;;;;;;;;;5125469;27;20043;-76
2024/01/07 06:52:47;;;;;;;6.22;1.60;;;;;;;;;;5125965;27;20128;-75
2024/01/07 06:55:14;;;;;;;7.88;2.40;;;;;;;;;;5141491;27;20038;-78
2024/01/07 06:57:40;;;;;;;5.40;2.00;;;;;;;;;;5121794;27;20053;-75
2024/01/07 07:00:07;;;;;;;5.43;2.03;;;;;;;;;;5104277;27;20043;-75
2024/01/07 07:02:33;;;;;;;6.40;1.83;;;;;;;;;;5121999;27;20046;-79
2024/01/07 07:04:59;;;;;;;4.63;1.65;;;;;;;;;;5156877;27;20164;-75
2024/01/07 07:07:26;;;;;;;3.75;1.25;;;;;;;;;;5137841;27;20046;-75
2024/01/07 07:09:52;;;;;;;4.35;1.50;;;;;;;;;;5155441;27;20457;-77
2024/01/07 07:12:18;;;;;;;6.35;1.80;;;;;;;;;;5121729;27;20134;-75
2024/01/07 07:14:44;;;;;;;5.38;1.55;;;;;;;;;;5121552;27;20486;-78
2024/01/07 07:17:10;;;;;;;3.35;1.00;;;;;;;;;;5159665;27;20047;-77
2024/01/07 07:19:36;;;;;;;3.90;1.30;;;;;;;;;;5143312;27;20086;-80
2024/01/07 07:22:03;;;;;;;4.90;1.60;;;;;;;;;;5162221;27;20482;-78
2024/01/07 07:24:29;;;;;;;2.72;0.90;;;;;;;;;;5162550;27;20051;-77
2024/01/07 07:26:55;;;;;;;3.42;1.25;;;;;;;;;;5142151;27;20042;-77
2024/01/07 07:29:21;;;;;;;5.05;1.73;;;;;;;;;;5141620;27;20039;-75
2024/01/07 07:31:48;;;;;;;5.07;1.50;;;;;;;;;;5143260;27;20039;-77
2024/01/07 07:34:14;;;;;;;3.60;0.70;;;;;;;;;;5161386;27;20073;-75
2024/01/07 07:36:41;;;;;;;3.88;1.10;;;;;;;;;;5143652;27;20469;-76
2024/01/07 07:39:09;;;;;;;2.53;0.88;;;;;;;;;;5160232;27;20046;-76
2024/01/07 07:41:35;;;;;;;3.25;1.30;;;;;;;;;;5160713;27;20043;-74
2024/01/07 07:44:01;;;;;;;6.15;1.33;;;;;;;;;;5160717;27;20038;-74
2024/01/07 07:46:27;;;;;;;5.20;1.60;;;;;;;;;;5108395;27;20042;-75
2024/01/07 07:48:53;;;;;;;4.15;1.10;;;;;;;;;;5161766;27;20130;-79
2024/01/07 07:51:20;;;;;;;3.45;0.82;;;;;;;;;;5162080;27;20039;-78
2024/01/07 07:53:46;;;;;;;3.72;1.20;;;;;;;;;;5144183;27;20042;-77
2024/01/07 07:56:12;;;;;;;4.40;1.45;;;;;;;;;;5142279;27;20038;-80
2024/01/07 07:58:39;;;;;;;3.28;1.08;;;;;;;;;;5158822;27;20043;-76
2024/01/07 08:01:06;;;;;;;2.30;0.80;;;;;;;;;;5161639;27;20046;-79
2024/01/07 08:03:32;;;;;;;6.25;1.63;;;;;;;;;;5127003;27;20046;-79
2024/01/07 08:05:58;;;;;;;6.67;1.80;;;;;;;;;;5123995;27;20050;-76
2024/01/07 08:08:24;;;;;;;1.98;0.80;;;;;;;;;;5162153;27;20049;-77
2024/01/07 08:10:51;;;;;;;4.35;1.38;;;;;;;;;;5163815;27;20098;-78
2024/01/07 08:13:17;;;;;;;5.00;1.15;;;;;;;;;;5126065;27;20090;-76
2024/01/07 08:15:43;;;;;;;2.53;0.95;;;;;;;;;;5123979;27;20438;-78
2024/01/07 08:18:09;;;;;;;7.18;1.83;;;;;;;;;;5162636;27;20076;-76
2024/01/07 08:20:35;;;;;;;7.60;2.03;;;;;;;;;;5161327;27;20046;-77
2024/01/07 08:23:02;;;;;;;3.80;1.05;;;;;;;;;;5146403;27;20050;-80
2024/01/07 08:25:28;;;;;;;5.00;1.00;;;;;;;;;;5160020;27;20042;-75
2024/01/07 08:27:54;;;;;;;5.38;1.50;;;;;;;;;;5160380;27;20048;-77
2024/01/07 08:30:20;;;;;;;4.68;1.27;;;;;;;;;;5143280;27;20104;-76
2024/01/07 08:32:46;;;;;;;7.40;2.03;;;;;;;;;;5161457;27;20043;-76
2024/01/07 08:35:13;;;;;;;7.40;1.20;;;;;;;;;;5111282;27;20062;-80
2024/01/07 08:37:39;;;;;;;5.07;1.50;;;;;;;;;;5143872;27;20043;-81
2024/01/07 08:40:05;;;;;;;3.38;1.00;;;;;;;;;;5126562;27;20046;-77
2024/01/07 08:42:31;;;;;;;2.53;0.98;;;;;;;;;;5143749;27;20050;-74
2024/01/07 08:45:00;;;;;;;6.13;1.30;;;;;;;;;;5162952;27;20183;-77
2024/01/07 08:47:26;;;;;;;2.10;0.77;;;;;;;;;;5144085;27;20089;-77
2024/01/07 08:49:53;;;;;;;3.63;1.17;;;;;;;;;;5143943;27;20038;-81
2024/01/07 08:52:19;;;;;;;3.53;0.93;;;;;;;;;;5144350;27;20130;-75
2024/01/07 08:54:46;;;;;;;1.77;0.60;;;;;;;;;;5140524;27;20053;-79
2024/01/07 08:57:12;;;;;;;2.47;0.73;;;;;;;;;;5162985;27;20039;-79
2024/01/07 08:59:38;;;;;;;3.28;1.10;;;;;;;;;;5160755;27;20474;-81
2024/01/07 09:02:04;;;;;;;2.35;0.80;;;;;;;;;;5142197;27;20039;-78
2024/01/07 09:04:30;;;;;;;2.58;0.77;;;;;;;;;;5126660;27;20394;-75
2024/01/07 09:06:57;;;;;;;1.42;0.40;;;;;;;;;;5141487;27;20053;-78
2024/01/07 09:09:23;;;;;;;2.05;0.73;;;;;;;;;;5161508;27;20050;-77
2024/01/07 09:11:50;;;;;;;4.82;1.20;;;;;;;;;;5127532;27;20051;-78
2024/01/07 09:14:16;;;;;;;3.10;0.63;;;;;;;;;;5146132;27;20050;-78
2024/01/07 09:16:42;;;;;;;4.18;1.13;;;;;;;;;;5125878;27;20058;-76
2024/01/07 09:19:09;;;;;;;4.85;1.10;;;;;;;;;;5141513;27;20050;-78
2024/01/07 09:21:35;;;;;;;3.65;0.90;;;;;;;;;;5141369;27;20042;-80
2024/01/07 09:24:01;;;;;;;5.22;1.08;;;;;;;;;;5126870;27;20042;-77
2024/01/07 09:26:28;;;;;;;1.92;0.70;;;;;;;;;;5161391;27;20053;-77
2024/01/07 09:28:54;;;;;;;3.60;1.10;;;;;;;;;;5142728;27;20042;-78
2024/01/07 09:31:20;;;;;;;3.28;0.90;;;;;;;;;;5160798;27;20041;-76
2024/01/07 09:33:46;;;;;;;2.47;0.70;;;;;;;;;;5145046;27;20062;-77
2024/01/07 09:36:13;;;;;;;5.38;1.55;;;;;;;;;;5143147;27;20042;-76
2024/01/07 09:38:39;;;;;;;2.97;0.80;;;;;;;;;;5144640;27;20043;-77
2024/01/07 09:41:05;;;;;;;7.05;1.45;;;;;;;;;;5162400;27;20042;-81
2024/01/07 09:43:31;;;;;;;4.05;0.65;;;;;;;;;;5144161;27;20057;-78
2024/01/07 09:45:58;;;;;;;4.15;1.50;;;;;;;;;;5163128;27;20042;-76
2024/01/07 09:48:24;;;;;;;5.78;1.58;;;;;;;;;;5162627;27;20069;-78
2024/01/07 09:50:52;;;;;;;4.07;1.23;;;;;;;;;;5141048;27;20046;-77
2024/01/07 09:53:20;;;;;;;4.35;1.40;;;;;;;;;;5127206;27;20501;-76
2024/01/07 09:55:51;;;;;;;5.60;1.17;;;;;;;;;;5125061;27;20099;-78
2024/01/07 09:58:17;;;;;;;5.72;0.88;;;;;;;;;;5145057;27;20042;-77
2024/01/07 10:00:43;;;;;;;3.67;0.93;;;;;;;;;;5161416;27;20224;-76
2024/01/07 10:03:09;;;;;;;2.33;0.60;;;;;;;;;;5144474;27;20059;-80
2024/01/07 10:05:35;;;;;;;4.07;0.90;;;;;;;;;;5142643;27;20450;-78
2024/01/07 10:08:02;;;;;;;4.35;1.40;;;;;;;;;;5158428;27;20042;-77
2024/01/07 10:10:29;;;;;;;5.97;1.30;;;;;;;;;;5157842;27;20058;-77
2024/01/07 10:12:56;;;;;;;5.50;0.85;;;;;;;;;;5139005;27;20050;-76
2024/01/07 10:15:22;;;;;;;2.50;0.70;;;;;;;;;;5141682;27;20064;-76
2024/01/07 10:17:49;;;;;;;3.25;0.85;;;;;;;;;;5143540;27;20051;-79
2024/01/07 10:20:17;;;;;;;3.78;0.88;;;;;;;;;;5122976;27;20046;-75
2024/01/07 10:22:47;;;;;;;3.97;1.08;;;;;;;;;;5141473;27;20045;-76
2024/01/07 10:25:14;;;;;;;2.88;0.82;;;;;;;;;;5141940;27;20058;-79
2024/01/07 10:27:40;;;;;;;7.45;1.52;;;;;;;;;;5142138;27;20442;-76
2024/01/07 10:30:06;;;;;;;3.45;1.10;;;;;;;;;;5123934;27;20090;-79
2024/01/07 10:32:32;;;;;;;5.10;0.70;;;;;;;;;;5158869;27;20497;-76
2024/01/07 10:35:03;;;;;;;3.50;0.68;;;;;;;;;;5138358;27;20168;-77
2024/01/07 10:37:29;;;;;;;3.90;0.90;;;;;;;;;;5159543;27;20117;-78
2024/01/07 10:40:00;;;;;;;2.85;0.90;;;;;;;;;;5161585;27;20059;-77
2024/01/07 10:42:27;;;;;;;5.60;0.90;;;;;;;;;;5143055;27;20046;-79
2024/01/07 10:44:53;;;;;;;2.83;0.75;;;;;;;;;;5140378;27;20090;-78
2024/01/07 10:47:20;;;;;;;4.07;0.60;;;;;;;;;;5141766;27;20381;-76
2024/01/07 10:49:48;;;;;;;2.38;0.70;;;;;;;;;;5158222;27;20050;-77
2024/01/07 10:52:15;;;;;;;4.38;0.73;;;;;;;;;;5160700;27;20046;-81
2024/01/07 10:54:42;;;;;;;7.28;0.70;;;;;;;;;;5144176;27;20498;-77
2024/01/07 10:57:27;;;;;;;3.00;0.40;;;;;;;;;;5128015;27;20142;-78
2024/01/07 10:59:54;;;;;;;2.13;0.70;;;;;;;;;;5147297;27;20050;-77
2024/01/07 11:02:22;;;;;;;3.08;0.60;;;;;;;;;;5126543;27;20208;-77
2024/01/07 11:04:51;;;;;;;3.45;0.80;;;;;;;;;;5144826;27;20482;-76
2024/01/07 11:07:18;;;;;;;1.98;0.52;;;;;;;;;;5144045;27;20393;-75
2024/01/07 11:09:56;;;;;;;3.10;0.43;;;;;;;;;;5143034;27;20099;-81
2024/01/07 11:12:23;;;;;;;2.47;0.80;;;;;;;;;;5163208;27;20055;-81
2024/01/07 11:14:52;;;;;;;2.72;0.77;;;;;;;;;;5143218;27;20042;-75
2024/01/07 11:17:37;;;;;;;2.78;0.60;;;;;;;;;;5124735;27;20043;-79
2024/01/07 11:20:05;;;;;;;7.43;1.10;;;;;;;;;;5160626;27;20077;-77
2024/01/07 11:22:32;;;;;;;2.85;0.63;;;;;;;;;;5160387;27;20047;-77
2024/01/07 11:25:02;;;;;;;1.38;0.40;;;;;;;;;;5159059;27;20133;-77
2024/01/07 11:27:32;;;;;;;3.78;1.00;;;;;;;;;;5142374;27;20042;-77
2024/01/07 11:30:02;;;;;;;3.38;0.60;;;;;;;;;;5160758;27;20038;-77
2024/01/07 11:32:31;;;;;;;1.80;0.50;;;;;;;;;;5126598;27;20047;-77
2024/01/07 11:34:59;;;;;;;3.40;0.68;;;;;;;;;;5126325;27;20054;-74
2024/01/07 11:37:25;;;;;;;2.85;1.00;;;;;;;;;;5144579;27;20047;-77
2024/01/07 11:39:52;;;;;;;2.55;0.50;;;;;;;;;;5143802;27;20161;-78
2024/01/07 11:42:19;;;;;;;3.67;0.63;;;;;;;;;;5160703;27;20046;-75
2024/01/07 11:44:48;;;;;;;9.25;1.27;;;;;;;;;;5159017;27;20047;-77
2024/01/07 11:47:15;;;;;;;2.90;0.90;;;;;;;;;;5141187;27;20500;-76
2024/01/07 11:49:41;;;;;;;3.90;1.00;;;;;;;;;;5127019;27;20099;-78
2024/01/07 11:52:09;;;;;;;4.00;0.90;;;;;;;;;;5142452;27;20055;-76
2024/01/07 11:54:35;;;;;;;;;;;;;;;;;;5162059;27;20108;-75
2024/01/07 11:57:02;;;;;;;2.63;0.80;;;;;;;;;;5159382;27;19919;-79
2024/01/07 11:59:29;;;;;;;1.40;0.45;;;;;;;;;;5124806;27;20042;-73
2024/01/07 12:01:56;;;;;;;5.38;1.00;;;;;;;;;;5160122;27;20541;-76
2024/01/07 12:04:22;;;;;;;2.17;0.47;;;;;;;;;;5141761;27;20085;-82
2024/01/07 12:06:49;;;;;;;6.50;1.03;;;;;;;;;;5143294;27;20042;-75
2024/01/07 12:09:15;;;;;;;2.50;0.70;;;;;;;;;;5127075;27;20125;-79
2024/01/07 12:11:42;;;;;;;5.30;0.63;;;;;;;;;;5161012;27;20061;-79
2024/01/07 12:14:22;;;;;;;4.40;1.02;;;;;;;;;;5112888;27;20395;-76
2024/01/07 12:16:49;;;;;;;3.30;0.73;;;;;;;;;;5112215;28;20124;-76
2024/01/07 12:19:15;;;;;;;3.13;0.80;;;;;;;;;;5112039;28;20051;-77
2024/01/07 12:21:41;;;;;;;4.22;1.35;;;;;;;;;;5110558;28;20058;-76
2024/01/07 12:24:07;;;;;;;2.30;0.63;;;;;;;;;;5111534;28;20101;-77
2024/01/07 12:26:33;;;;;;;5.30;0.80;;;;;;;;;;5096552;28;20073;-78
2024/01/07 12:29:03;;;;;;;2.25;0.60;;;;;;;;;;5113010;28;20480;-79
2024/01/07 12:31:30;;;;;;;4.45;0.50;;;;;;;;;;5110733;28;20047;-77
2024/01/07 12:33:56;;;;;;;5.60;1.00;;;;;;;;;;5112890;28;20044;-79
2024/01/07 12:36:23;;;;;;;3.22;0.45;;;;;;;;;;5111121;28;20048;-79
2024/01/07 12:38:51;;;;;;;3.15;0.85;;;;;;;;;;5111896;28;20083;-78
2024/01/07 12:41:17;;;;;;;4.15;1.02;;;;;;;;;;5112098;28;20052;-75
2024/01/07 12:43:43;;;;;;;7.90;0.98;;;;;;;;;;5113997;28;20040;-79
2024/01/07 12:46:09;;;;;;;4.57;1.25;;;;;;;;;;5114722;28;20130;-77
2024/01/07 12:48:35;;;;;;;7.13;1.25;;;;;;;;;;5113233;28;20094;-76
2024/01/07 12:51:02;;;;;;;8.02;2.42;;;;;;;;;;5112427;28;20051;-76
2024/01/07 12:53:28;;;;;;;7.50;1.70;;;;;;;;;;5112967;28;20044;-75
2024/01/07 12:55:55;;;;;;;4.03;1.30;;;;;;;;;;5113887;28;20051;-78
2024/01/07 12:58:21;;;;;;;5.27;1.87;;;;;;;;;;5115224;28;20105;-76
2024/01/07 13:00:48;;;;;;;5.67;0.93;;;;;;;;;;5111607;28;20058;-78
2024/01/07 13:03:17;;;;;;;6.43;1.40;;;;;;;;;;5096898;28;20392;-78
2024/01/07 13:05:45;;;;;;;3.88;1.00;;;;;;;;;;5111936;28;20044;-77
2024/01/07 13:08:12;;;;;;;6.15;2.08;;;;;;;;;;5112594;28;20047;-76
2024/01/07 13:10:38;;;;;;;5.20;1.50;;;;;;;;;;5111779;28;20381;-78
2024/01/07 13:13:05;;;;;;;3.00;1.20;;;;;;;;;;5111213;28;20062;-76
2024/01/07 13:15:31;;;;;;;4.45;1.17;;;;;;;;;;5110709;28;20082;-75
2024/01/07 13:17:58;;;;;;;6.13;1.05;;;;;;;;;;5110544;28;20474;-75
2024/01/07 13:20:24;;;;;;;6.05;1.40;;;;;;;;;;5110473;28;20054;-75
2024/01/07 13:22:50;;;;;;;2.35;0.68;;;;;;;;;;5113119;28;20047;-77
2024/01/07 13:25:16;;;;;;;5.30;1.60;;;;;;;;;;5082809;28;20048;-76
2024/01/07 13:27:42;;;;;;;5.32;1.20;;;;;;;;;;5099111;28;20090;-79
2024/01/07 13:30:09;;;;;;;4.63;1.20;;;;;;;;;;5096457;28;20074;-75
2024/01/07 13:32:36;;;;;;;5.88;1.77;;;;;;;;;;5078511;28;20044;-75
2024/01/07 13:35:08;;;;;;;6.63;2.08;;;;;;;;;;5079470;28;20052;-77
2024/01/07 13:37:37;;;;;;;7.88;2.10;;;;;;;;;;5081198;28;20504;-77
2024/01/07 13:40:03;;;;;;;6.80;2.15;;;;;;;;;;5096535;28;20066;-78
2024/01/07 13:42:30;;;;;;;24.45;1.80;;;;;;;;;;5096863;28;20349;-79
2024/01/07 13:44:56;;;;;;;8.80;3.58;;;;;;;;;;5098401;28;20043;-74
2024/01/07 13:47:22;;;;;;;7.82;2.50;;;;;;;;;;5094047;28;20158;-76
2024/01/07 13:49:48;;;;;;;8.13;2.60;;;;;;;;;;5098500;28;20051;-77
2024/01/07 13:52:15;;;;;;;4.50;1.30;;;;;;;;;;5096571;28;20059;-77
2024/01/07 13:54:41;;;;;;;9.20;2.22;;;;;;;;;;5097395;28;20052;-78
2024/01/07 13:57:07;;;;;;;7.97;2.50;;;;;;;;;;5097499;28;20044;-75
2024/01/07 13:59:33;;;;;;;7.80;1.95;;;;;;;;;;5096994;28;20130;-80
2024/01/07 14:01:59;;;;;;;7.13;2.13;;;;;;;;;;5096389;28;20076;-79
2024/01/07 14:04:26;;;;;;;5.10;1.90;;;;;;;;;;5096645;28;20059;-76
2024/01/07 14:06:58;;;;;;;11.82;2.42;;;;;;;;;;5080416;28;20055;-76
2024/01/07 14:09:24;;;;;;;5.47;1.83;;;;;;;;;;5096655;28;20522;-76
2024/01/07 14:11:50;;;;;;;7.03;2.20;;;;;;;;;;5098345;28;20044;-80
2024/01/07 14:14:19;;;;;;;6.20;1.75;;;;;;;;;;5096992;28;20450;-74
2024/01/07 14:16:45;;;;;;;9.70;2.80;;;;;;;;;;5096840;28;20044;-76
2024/01/07 14:19:11;;;;;;;7.07;2.08;;;;;;;;;;5080489;28;20048;-78
2024/01/07 14:21:37;;;;;;;7.30;2.58;;;;;;;;;;5094908;28;20074;-74
2024/01/07 14:24:03;;;;;;;6.65;2.05;;;;;;;;;;5095671;28;20047;-76
2024/01/07 14:26:29;;;;;;;6.68;1.55;;;;;;;;;;5097732;28;20052;-75
2024/01/07 14:28:55;;;;;;;8.10;2.20;;;;;;;;;;5095712;28;20176;-76
2024/01/07 14:31:22;;;;;;;6.30;2.40;;;;;;;;;;5097677;28;20502;-75
2024/01/07 14:33:48;;;;;;;10.23;3.88;;;;;;;;;;5078397;28;20126;-76